createdAt,value
2018-04-10T00:01:46.050Z,19.13
2018-04-10T00:04:20.500Z,9.83
2018-04-10T00:06:54.975Z,24.90
2018-04-10T00:09:29.352Z,8.70
2018-04-10T00:12:03.694Z,8.07
2018-04-10T00:14:38.120Z,15.67
2018-04-10T00:17:12.456Z,14.90
2018-04-10T00:19:46.868Z,8.37
2018-04-10T00:22:21.361Z,9.27
2018-04-10T00:24:55.791Z,8.73
2018-04-10T00:27:30.190Z,9.20
2018-04-10T00:30:05.354Z,7.63
2018-04-10T00:32:39.721Z,9.07
2018-04-10T00:35:14.004Z,7.57
2018-04-10T00:37:48.434Z,7.73
2018-04-10T00:40:23.647Z,8.30
2018-04-10T00:42:58.100Z,7.83
2018-04-10T00:45:32.609Z,17.90
2018-04-10T00:48:06.929Z,21.03
2018-04-10T00:50:41.225Z,7.87
2018-04-10T00:53:27.642Z,8.27
2018-04-10T00:56:02.171Z,7.47
2018-04-10T00:58:36.806Z,8.57
2018-04-10T01:01:11.074Z,7.10
2018-04-10T01:03:45.406Z,8.13
2018-04-10T01:06:20.040Z,7.83
2018-04-10T01:08:54.574Z,7.60
2018-04-10T01:11:28.897Z,9.07
2018-04-10T01:14:03.908Z,7.40
2018-04-10T01:16:38.333Z,8.93
2018-04-10T01:19:12.765Z,7.47
2018-04-10T01:21:47.319Z,6.60
2018-04-10T01:24:21.672Z,8.40
2018-04-10T01:26:56.017Z,8.77
2018-04-10T01:29:31.153Z,6.47
2018-04-10T01:32:05.557Z,7.90
2018-04-10T01:34:39.968Z,6.70
2018-04-10T01:37:14.414Z,7.43
2018-04-10T01:39:48.851Z,7.77
2018-04-10T01:42:23.305Z,7.80
2018-04-10T01:44:57.675Z,7.57
2018-04-10T01:47:32.204Z,7.20
2018-04-10T01:50:06.504Z,7.37
2018-04-10T01:52:40.844Z,6.30
2018-04-10T01:55:15.201Z,7.57
2018-04-10T01:57:49.638Z,6.87
2018-04-10T02:00:24.223Z,7.20
2018-04-10T02:02:59.486Z,6.17
2018-04-10T02:05:33.905Z,7.03
2018-04-10T02:08:08.248Z,7.47
2018-04-10T02:10:42.601Z,6.97
2018-04-10T02:13:16.956Z,7.63
2018-04-10T02:15:51.449Z,7.40
2018-04-10T02:18:25.800Z,7.57
2018-04-10T02:21:00.169Z,7.00
2018-04-10T02:23:34.482Z,7.93
2018-04-10T02:26:08.906Z,6.20
2018-04-10T02:28:43.448Z,7.00
2018-04-10T02:31:17.991Z,5.83
2018-04-10T02:33:52.267Z,6.43
2018-04-10T02:36:26.690Z,5.70
2018-04-10T02:39:01.016Z,5.70
2018-04-10T02:41:35.535Z,7.40
2018-04-10T02:44:09.859Z,6.10
2018-04-10T02:46:45.088Z,6.13
2018-04-10T02:49:19.482Z,7.33
2018-04-10T02:51:53.757Z,5.97
2018-04-10T02:54:28.188Z,6.47
2018-04-10T02:57:02.581Z,6.50
2018-04-10T02:59:36.963Z,6.83
2018-04-10T03:02:11.412Z,7.20
2018-04-10T03:04:45.862Z,6.37
2018-04-10T03:07:20.181Z,6.30
2018-04-10T03:09:54.538Z,7.30
2018-04-10T03:12:29.028Z,7.03
2018-04-10T03:15:03.515Z,9.13
2018-04-10T03:17:37.816Z,6.57
2018-04-10T03:20:12.320Z,10.77
2018-04-10T03:22:46.690Z,5.90
2018-04-10T03:25:20.960Z,8.30
2018-04-10T03:27:55.341Z,6.53
2018-04-10T03:30:29.779Z,7.10
2018-04-10T03:33:04.496Z,7.13
2018-04-10T03:35:38.828Z,7.77
2018-04-10T03:38:13.131Z,7.47
2018-04-10T03:40:47.535Z,6.67
2018-04-10T03:43:21.855Z,8.43
2018-04-10T03:45:56.360Z,9.70
2018-04-10T03:48:30.716Z,8.47
2018-04-10T03:51:05.128Z,6.87
2018-04-10T03:53:39.551Z,7.53
2018-04-10T03:56:14.772Z,10.53
2018-04-10T03:58:49.181Z,8.47
2018-04-10T04:01:24.293Z,6.83
2018-04-10T04:03:58.576Z,15.00
2018-04-10T04:06:33.083Z,9.60
2018-04-10T04:09:07.494Z,10.77
2018-04-10T04:11:41.905Z,6.67
2018-04-10T04:14:16.240Z,6.87
2018-04-10T04:30:19.322Z,9.73
2018-04-10T04:32:54.365Z,7.47
2018-04-10T04:35:28.790Z,8.67
2018-04-10T04:38:03.134Z,9.40
2018-04-10T04:40:37.631Z,12.10
2018-04-10T04:43:11.920Z,7.03
2018-04-10T04:45:46.247Z,8.10
2018-04-10T04:48:20.682Z,12.63
2018-04-10T04:50:55.114Z,9.73
2018-04-10T04:53:29.408Z,7.10
2018-04-10T04:56:04.536Z,8.40
2018-04-10T04:58:38.848Z,8.77
2018-04-10T05:01:14.124Z,7.30
2018-04-10T05:03:48.524Z,7.07
2018-04-10T05:06:22.864Z,6.13
2018-04-10T05:08:57.963Z,7.23
2018-04-10T05:11:32.317Z,7.70
2018-04-10T05:14:06.701Z,6.77
2018-04-10T05:16:41.076Z,7.77
2018-04-10T05:19:15.372Z,6.40
2018-04-10T05:21:49.863Z,7.50
2018-04-10T05:24:25.149Z,8.17
2018-04-10T05:26:59.541Z,7.30
2018-04-10T05:29:33.893Z,9.00
2018-04-10T05:32:08.589Z,6.67
2018-04-10T05:34:42.868Z,8.20
2018-04-10T05:37:17.200Z,6.13
2018-04-10T05:39:51.648Z,7.17
2018-04-10T05:42:26.768Z,8.60
2018-04-10T05:45:01.076Z,9.93
2018-04-10T05:47:36.126Z,6.53
2018-04-10T05:50:10.502Z,8.37
2018-04-10T05:52:44.877Z,7.90
2018-04-10T05:55:19.890Z,7.23
2018-04-10T05:57:54.437Z,9.50
2018-04-10T06:00:28.751Z,12.17
2018-04-10T06:03:03.968Z,32.97
2018-04-10T06:05:39.212Z,34.07
2018-04-10T06:08:13.627Z,33.03
2018-04-10T06:10:48.885Z,33.80
2018-04-10T06:13:23.569Z,37.30
2018-04-10T06:15:57.852Z,38.20
2018-04-10T06:18:32.381Z,31.37
2018-04-10T06:21:06.972Z,33.10
2018-04-10T06:23:41.457Z,34.60
2018-04-10T06:26:16.054Z,37.13
2018-04-10T06:28:50.657Z,33.70
2018-04-10T06:31:25.105Z,32.63
2018-04-10T06:33:59.646Z,34.03
2018-04-10T06:36:34.514Z,35.67
2018-04-10T06:39:10.062Z,36.83
2018-04-10T06:41:44.805Z,37.70
2018-04-10T06:44:20.059Z,36.07
2018-04-10T06:46:54.594Z,32.43
2018-04-10T06:49:29.055Z,37.23
2018-04-10T06:52:03.719Z,29.23
2018-04-10T06:54:38.156Z,33.13
2018-04-10T06:57:12.745Z,28.73
2018-04-10T06:59:47.160Z,35.27
2018-04-10T07:02:21.834Z,30.47
2018-04-10T07:04:56.282Z,29.70
2018-04-10T07:07:30.878Z,29.07
2018-04-10T07:10:05.260Z,30.10
2018-04-10T07:12:39.678Z,27.20
2018-04-10T07:15:14.354Z,29.20
2018-04-10T07:17:49.032Z,22.97
2018-04-10T07:20:23.476Z,20.67
2018-04-10T07:22:58.081Z,28.43
2018-04-10T07:25:32.918Z,26.87
2018-04-10T07:28:07.433Z,23.60
2018-04-10T07:30:41.944Z,20.43
2018-04-10T07:33:16.312Z,25.07
2018-04-10T07:35:50.805Z,27.33
2018-04-10T07:38:25.118Z,18.53
2018-04-10T07:40:59.592Z,23.57
2018-04-10T07:43:34.091Z,24.30
2018-04-10T07:46:08.620Z,18.70
2018-04-10T07:48:43.011Z,17.50
2018-04-10T07:51:17.528Z,18.70
2018-04-10T07:53:52.068Z,26.60
2018-04-10T07:56:26.596Z,29.53
2018-04-10T07:59:01.020Z,18.90
2018-04-10T08:01:35.417Z,14.40
2018-04-10T08:04:09.888Z,19.33
2018-04-10T08:06:44.371Z,17.30
2018-04-10T08:09:18.761Z,28.30
2018-04-10T08:11:53.216Z,28.33
2018-04-10T08:14:27.654Z,16.80
2018-04-10T08:17:01.928Z,16.17
2018-04-10T08:19:36.461Z,8.57
2018-04-10T08:22:11.743Z,10.43
2018-04-10T08:24:46.351Z,10.73
2018-04-10T08:27:20.790Z,10.40
2018-04-10T08:29:55.088Z,13.10
2018-04-10T08:32:29.616Z,14.57
2018-04-10T08:35:03.948Z,10.20
2018-04-10T08:37:38.349Z,14.27
2018-04-10T08:40:12.668Z,28.47
2018-04-10T08:42:47.196Z,22.77
2018-04-10T08:45:22.548Z,18.40
2018-04-10T08:47:57.658Z,17.37
2018-04-10T08:50:32.812Z,17.77
2018-04-10T08:53:07.221Z,13.63
2018-04-10T08:55:41.504Z,13.97
2018-04-10T08:58:16.770Z,28.67
2018-04-10T09:00:51.188Z,19.67
2018-04-10T09:03:25.521Z,21.73
2018-04-10T09:05:59.848Z,15.07
2018-04-10T09:08:34.154Z,17.10
2018-04-10T09:11:08.684Z,10.13
2018-04-10T09:13:43.016Z,9.93
2018-04-10T09:16:17.542Z,11.57
2018-04-10T09:18:52.122Z,24.40
2018-04-10T09:21:26.474Z,11.53
2018-04-10T09:24:00.984Z,13.43
2018-04-10T09:26:35.500Z,15.27
2018-04-10T09:29:09.997Z,25.73
2018-04-10T09:31:45.049Z,17.47
2018-04-10T09:34:19.634Z,21.20
2018-04-10T09:36:53.946Z,17.23
2018-04-10T09:39:28.371Z,14.33
2018-04-10T09:42:02.701Z,11.70
2018-04-10T09:44:37.063Z,14.27
2018-04-10T09:47:11.682Z,8.67
2018-04-10T09:49:46.013Z,24.07
2018-04-10T09:52:20.402Z,36.63
2018-04-10T09:54:55.152Z,18.17
2018-04-10T09:57:31.057Z,23.47
2018-04-10T10:00:05.604Z,16.93
2018-04-10T10:02:40.053Z,11.30
2018-04-10T10:05:14.504Z,10.47
2018-04-10T10:07:48.808Z,8.20
2018-04-10T10:10:24.051Z,13.93
2018-04-10T10:12:58.379Z,16.43
2018-04-10T10:15:32.748Z,15.97
2018-04-10T10:18:07.068Z,14.43
2018-04-10T10:20:42.241Z,24.00
2018-04-10T10:23:16.652Z,13.43
2018-04-10T10:25:51.229Z,28.23
2018-04-10T10:28:26.549Z,22.27
2018-04-10T10:31:00.855Z,13.10
2018-04-10T10:33:35.330Z,21.17
2018-04-10T10:36:09.741Z,11.80
2018-04-10T10:38:44.160Z,15.97
2018-04-10T10:41:18.775Z,19.13
2018-04-10T10:43:53.593Z,17.23
2018-04-10T10:46:27.930Z,21.50
2018-04-10T10:49:02.337Z,10.57
2018-04-10T10:51:37.425Z,8.63
2018-04-10T10:54:12.563Z,6.93
2018-04-10T10:56:47.036Z,9.20
2018-04-10T10:59:21.355Z,13.60
2018-04-10T11:01:56.445Z,9.93
2018-04-10T11:04:30.948Z,16.33
2018-04-10T11:07:05.312Z,7.67
2018-04-10T11:09:39.770Z,6.70
2018-04-10T11:12:14.067Z,11.47
2018-04-10T11:14:48.339Z,9.80
2018-04-10T11:17:22.676Z,19.10
2018-04-10T11:19:57.071Z,8.97
2018-04-10T11:22:31.446Z,11.77
2018-04-10T11:25:06.673Z,9.90
2018-04-10T11:27:40.999Z,10.43
2018-04-10T11:30:16.143Z,14.27
2018-04-10T11:32:50.512Z,9.30
2018-04-10T11:35:24.864Z,10.70
2018-04-10T11:37:59.115Z,18.07
2018-04-10T11:40:33.505Z,27.33
2018-04-10T11:43:07.794Z,23.67
2018-04-10T11:45:42.137Z,20.13
2018-04-10T11:48:16.512Z,13.83
2018-04-10T11:50:51.788Z,8.90
2018-04-10T11:53:26.085Z,17.13
2018-04-10T11:56:01.344Z,26.37
2018-04-10T11:58:35.753Z,8.40
2018-04-10T12:01:10.279Z,16.23
2018-04-10T12:03:45.656Z,25.30
2018-04-10T12:06:19.927Z,30.13
2018-04-10T12:08:54.449Z,23.77
2018-04-10T12:11:28.909Z,30.57
2018-04-10T12:14:03.334Z,20.30
2018-04-10T12:16:37.649Z,29.37
2018-04-10T12:19:12.077Z,33.40
2018-04-10T12:21:46.459Z,35.57
2018-04-10T12:24:21.522Z,33.33
2018-04-10T12:26:55.827Z,38.17
2018-04-10T12:29:30.272Z,40.73
2018-04-10T12:32:04.570Z,32.27
2018-04-10T12:34:39.004Z,28.73
2018-04-10T12:37:13.343Z,39.43
2018-04-10T12:39:47.816Z,23.97
2018-04-10T12:42:22.253Z,28.57
2018-04-10T12:44:57.476Z,32.27
2018-04-10T12:47:32.019Z,30.60
2018-04-10T12:50:06.554Z,28.63
2018-04-10T12:52:41.697Z,25.57
2018-04-10T12:55:17.635Z,29.20
2018-04-10T12:57:52.004Z,29.90
2018-04-10T13:00:27.172Z,35.23
2018-04-10T13:03:01.536Z,31.90
2018-04-10T13:05:35.868Z,25.33
2018-04-10T13:08:10.218Z,27.10
2018-04-10T13:10:44.560Z,26.40
2018-04-10T13:13:19.645Z,32.17
2018-04-10T13:15:54.229Z,26.07
2018-04-10T13:18:28.529Z,31.70
2018-04-10T13:21:02.879Z,32.97
2018-04-10T13:23:37.211Z,36.57
2018-04-10T13:26:12.397Z,33.37
2018-04-10T13:28:46.655Z,32.67
2018-04-10T13:31:21.043Z,37.03
2018-04-10T13:33:55.319Z,40.97
2018-04-10T13:36:29.780Z,42.73
2018-04-10T13:39:04.102Z,40.90
2018-04-10T13:41:38.475Z,40.23
2018-04-10T13:44:12.925Z,40.30
2018-04-10T13:46:47.392Z,43.73
2018-04-10T13:49:21.884Z,39.10
2018-04-10T13:51:56.192Z,43.20
2018-04-10T13:54:32.055Z,42.53
2018-04-10T13:57:06.478Z,42.13
2018-04-10T13:59:42.442Z,40.77
2018-04-10T14:02:17.077Z,36.23
2018-04-10T14:04:51.391Z,43.27
2018-04-10T14:07:26.516Z,39.60
2018-04-10T14:10:00.824Z,49.30
2018-04-10T14:12:35.992Z,40.03
2018-04-10T14:15:10.353Z,43.60
2018-04-10T14:17:44.741Z,39.63
2018-04-10T14:20:19.811Z,39.97
2018-04-10T14:22:54.100Z,32.17
2018-04-10T14:25:28.606Z,44.33
2018-04-10T14:28:03.669Z,38.60
2018-04-10T14:30:37.988Z,43.87
2018-04-10T14:33:13.082Z,46.27
2018-04-10T14:35:47.538Z,42.80
2018-04-10T14:38:21.800Z,45.63
2018-04-10T14:40:56.252Z,41.53
2018-04-10T14:43:30.749Z,40.53
2018-04-10T14:46:05.111Z,31.33
2018-04-10T14:48:39.653Z,42.93
2018-04-10T14:51:14.871Z,48.43
2018-04-10T14:53:49.263Z,41.83
2018-04-10T14:56:23.810Z,47.93
2018-04-10T14:58:58.094Z,36.67
2018-04-10T15:01:32.769Z,33.47
2018-04-10T15:04:07.193Z,38.07
2018-04-10T15:06:41.709Z,34.57
2018-04-10T15:09:16.864Z,37.43
2018-04-10T15:11:51.240Z,46.43
2018-04-10T15:14:25.713Z,40.87
2018-04-10T15:17:00.105Z,44.50
2018-04-10T15:19:34.491Z,41.70
2018-04-10T15:22:08.845Z,52.63
2018-04-10T15:24:43.250Z,50.53
2018-04-10T15:27:17.797Z,47.67
2018-04-10T15:29:52.068Z,47.93
2018-04-10T15:32:26.726Z,47.23
2018-04-10T15:35:01.875Z,41.33
2018-04-10T15:37:36.195Z,41.53
2018-04-10T15:40:10.594Z,42.10
2018-04-10T15:42:45.025Z,39.07
2018-04-10T15:45:19.455Z,41.53
2018-04-10T15:47:53.885Z,39.47
2018-04-10T15:50:28.274Z,39.70
2018-04-10T15:53:02.839Z,39.67
2018-04-10T15:55:37.436Z,38.70
2018-04-10T15:58:11.937Z,40.73
2018-04-10T16:00:46.379Z,41.77
2018-04-10T16:03:21.107Z,45.63
2018-04-10T16:05:55.580Z,43.63
2018-04-10T16:08:29.925Z,46.70
2018-04-10T16:11:04.281Z,46.17
2018-04-10T16:13:38.664Z,41.87
2018-04-10T16:16:13.033Z,43.83
2018-04-10T16:18:47.500Z,35.63
2018-04-10T16:21:22.569Z,38.57
2018-04-10T16:23:56.912Z,42.10
2018-04-10T16:26:31.238Z,41.00
2018-04-10T16:29:05.650Z,42.17
2018-04-10T16:31:40.063Z,35.73
2018-04-10T16:34:14.327Z,39.20
2018-04-10T16:36:48.642Z,39.33
2018-04-10T16:39:22.935Z,38.60
2018-04-10T16:41:57.330Z,37.90
2018-04-10T16:44:31.754Z,41.30
2018-04-10T16:47:06.052Z,38.17
2018-04-10T16:49:40.333Z,37.37
2018-04-10T16:52:14.701Z,37.80
2018-04-10T16:54:49.113Z,38.90
2018-04-10T16:57:23.445Z,35.43
2018-04-10T16:59:57.924Z,31.87
2018-04-10T17:02:32.243Z,34.73
2018-04-10T17:05:06.559Z,31.37
2018-04-10T17:07:40.976Z,30.40
2018-04-10T17:10:15.332Z,37.03
2018-04-10T17:12:49.941Z,33.40
2018-04-10T17:15:24.249Z,37.13
2018-04-10T17:17:58.547Z,32.77
2018-04-10T17:20:33.006Z,34.00
2018-04-10T17:23:07.307Z,34.73
2018-04-10T17:25:41.786Z,34.43
2018-04-10T17:28:16.972Z,29.47
2018-04-10T17:30:52.342Z,31.47
2018-04-10T17:33:27.667Z,31.97
2018-04-10T17:36:02.080Z,28.60
2018-04-10T17:38:36.500Z,34.93
2018-04-10T17:41:10.836Z,34.63
2018-04-10T17:43:46.061Z,33.63
2018-04-10T17:46:20.470Z,27.60
2018-04-10T17:48:54.793Z,31.23
2018-04-10T17:51:29.227Z,31.67
2018-04-10T17:54:03.608Z,30.60
2018-04-10T17:56:38.091Z,29.20
2018-04-10T17:59:12.551Z,26.23
2018-04-10T18:01:47.037Z,32.43
2018-04-10T18:04:21.615Z,30.53
2018-04-10T18:06:55.978Z,35.03
2018-04-10T18:09:31.794Z,25.07
2018-04-10T18:12:06.335Z,31.90
2018-04-10T18:14:40.640Z,26.57
2018-04-10T18:17:15.132Z,33.33
2018-04-10T18:19:49.469Z,34.00
2018-04-10T18:22:24.025Z,37.13
2018-04-10T18:24:58.429Z,27.43
2018-04-10T18:27:32.902Z,31.70
2018-04-10T18:30:07.241Z,28.37
2018-04-10T18:32:41.904Z,22.13
2018-04-10T18:35:16.231Z,19.80
2018-04-10T18:37:50.739Z,19.93
2018-04-10T18:40:25.171Z,16.87
2018-04-10T18:42:59.503Z,15.87
2018-04-10T18:45:33.780Z,14.80
2018-04-10T18:48:08.216Z,14.53
2018-04-10T18:50:42.745Z,14.03
2018-04-10T18:53:17.636Z,16.87
2018-04-10T18:55:52.910Z,13.20
2018-04-10T18:58:27.352Z,24.07
2018-04-10T19:01:01.918Z,14.20
2018-04-10T19:03:38.682Z,12.93
2018-04-10T19:06:12.940Z,13.30
2018-04-10T19:08:48.145Z,13.47
2018-04-10T19:11:23.988Z,17.90
2018-04-10T19:13:58.398Z,18.27
2018-04-10T19:16:33.895Z,14.97
2018-04-10T19:19:08.981Z,14.43
2018-04-10T19:21:43.446Z,21.63
2018-04-10T19:24:18.687Z,16.10
2018-04-10T19:26:52.942Z,15.30
2018-04-10T19:29:27.736Z,29.17
2018-04-10T19:32:02.460Z,25.43
2018-04-10T19:34:36.892Z,16.67
2018-04-10T19:37:11.316Z,13.13
2018-04-10T19:39:45.640Z,12.90
2018-04-10T19:42:20.084Z,23.90
2018-04-10T19:44:54.520Z,18.57
2018-04-10T19:47:28.938Z,24.33
2018-04-10T19:50:03.345Z,13.93
2018-04-10T19:52:37.770Z,14.77
2018-04-10T19:55:13.704Z,15.57
2018-04-10T19:57:48.075Z,19.47
2018-04-10T20:00:22.560Z,19.40
2018-04-10T20:02:56.977Z,16.30
2018-04-10T20:05:32.211Z,16.00
2018-04-10T20:08:07.362Z,34.27
2018-04-10T20:10:41.945Z,17.23
2018-04-10T20:13:16.589Z,15.20
2018-04-10T20:15:50.982Z,28.47
2018-04-10T20:18:25.513Z,35.00
2018-04-10T20:21:00.682Z,29.77
2018-04-10T20:23:34.999Z,16.37
2018-04-10T20:26:09.411Z,33.33
2018-04-10T20:28:44.125Z,25.63
2018-04-10T20:31:18.672Z,29.67
2018-04-10T20:33:53.092Z,32.50
2018-04-10T20:36:27.837Z,32.33
2018-04-10T20:51:10.229Z,13.50
2018-04-10T20:53:44.745Z,15.23
2018-04-10T20:56:19.269Z,28.67
2018-04-10T20:58:55.185Z,23.37
2018-04-10T21:01:29.639Z,23.60
2018-04-10T21:04:05.638Z,25.77
2018-04-10T21:06:40.105Z,33.80
2018-04-10T21:09:15.206Z,14.00
2018-04-10T21:11:49.661Z,12.60
2018-04-10T21:14:24.021Z,22.97
2018-04-10T21:16:58.393Z,31.57
2018-04-10T21:19:34.956Z,23.80
2018-04-10T21:22:10.928Z,12.80
2018-04-10T21:24:47.082Z,13.83
2018-04-10T21:27:23.662Z,22.60
2018-04-10T21:29:59.743Z,16.03
2018-04-10T21:32:36.509Z,28.93
2018-04-10T21:35:12.525Z,24.97
2018-04-10T21:37:48.600Z,13.17
2018-04-10T21:40:24.176Z,17.93
2018-04-10T21:43:04.245Z,18.17
2018-04-10T21:45:38.568Z,11.60
2018-04-10T21:48:13.064Z,11.80
2018-04-10T21:50:47.517Z,11.90
2018-04-10T21:53:21.848Z,8.20
2018-04-10T21:55:56.329Z,11.17
2018-04-10T21:58:30.969Z,11.37
2018-04-10T22:01:05.270Z,8.73
2018-04-10T22:03:39.688Z,8.30
2018-04-10T22:06:14.229Z,9.73
2018-04-10T22:08:48.633Z,9.77
2018-04-10T22:11:23.146Z,10.67
2018-04-10T22:13:57.554Z,8.03
2018-04-10T22:16:31.988Z,9.17
2018-04-10T22:19:06.430Z,7.70
2018-04-10T22:21:40.929Z,10.07
2018-04-10T22:24:15.212Z,7.97
2018-04-10T22:26:49.692Z,8.13
2018-04-10T22:29:24.096Z,10.50
2018-04-10T22:31:58.622Z,8.80
2018-04-10T22:34:33.025Z,7.67
2018-04-10T22:37:07.336Z,7.90
2018-04-10T22:39:41.587Z,7.53
2018-04-10T22:42:16.070Z,9.93
2018-04-10T22:44:50.901Z,8.10
2018-04-10T22:47:25.336Z,11.40
2018-04-10T22:49:59.638Z,7.73
2018-04-10T22:52:33.953Z,8.27
2018-04-10T22:55:08.438Z,8.53
2018-04-10T22:57:43.188Z,7.23
2018-04-10T23:00:33.186Z,7.63
2018-04-10T23:03:07.421Z,7.10
2018-04-10T23:05:41.962Z,8.30
2018-04-10T23:08:16.305Z,7.97
2018-04-10T23:10:50.720Z,7.10
2018-04-10T23:13:25.600Z,10.10
2018-04-10T23:18:39.057Z,8.97
2018-04-10T23:21:13.901Z,7.27
2018-04-10T23:23:48.283Z,6.33
2018-04-10T23:26:23.352Z,7.83
2018-04-10T23:28:57.722Z,7.57
2018-04-10T23:31:32.324Z,7.63
2018-04-10T23:34:06.580Z,7.50
2018-04-10T23:36:41.052Z,7.77
2018-04-10T23:39:16.185Z,7.07
2018-04-10T23:41:50.573Z,6.67
2018-04-10T23:44:24.924Z,8.73
2018-04-10T23:46:59.976Z,8.17
2018-04-10T23:49:34.284Z,5.50
2018-04-10T23:52:08.645Z,6.57
2018-04-10T23:54:43.854Z,15.73
2018-04-10T23:57:18.357Z,9.70
2018-04-10T23:59:52.912Z,7.33
